createdAt,value
2023-03-17T00:00:20.033Z,81.54
2023-03-17T00:02:49.847Z,81.39
2023-03-17T00:05:23.380Z,81.28
2023-03-17T00:07:53.144Z,81.47
2023-03-17T00:10:26.027Z,81.68
2023-03-17T00:12:55.348Z,81.77
2023-03-17T00:15:23.617Z,81.74
2023-03-17T00:17:50.824Z,82.02
2023-03-17T00:20:24.514Z,82.18
2023-03-17T00:22:51.904Z,82.20
2023-03-17T00:25:25.652Z,82.28
2023-03-17T00:27:53.465Z,82.20
2023-03-17T00:30:21.458Z,82.12
2023-03-17T00:32:51.833Z,82.33
2023-03-17T00:35:26.859Z,82.69
2023-03-17T00:37:56.026Z,82.65
2023-03-17T00:40:29.665Z,82.83
2023-03-17T00:42:58.818Z,82.82
2023-03-17T00:45:29.780Z,82.90
2023-03-17T00:47:57.915Z,83.07
2023-03-17T00:50:28.324Z,82.92
2023-03-17T00:52:58.210Z,82.76
2023-03-17T00:55:26.915Z,82.74
2023-03-17T00:57:54.667Z,82.70
2023-03-17T01:00:27.612Z,82.67
2023-03-17T01:02:57.063Z,82.61
2023-03-17T01:05:25.641Z,82.63
2023-03-17T01:07:58.071Z,82.40
2023-03-17T01:10:28.562Z,82.35
2023-03-17T01:12:59.072Z,82.29
2023-03-17T01:15:31.786Z,82.40
2023-03-17T01:18:03.077Z,82.56
2023-03-17T01:20:34.682Z,81.61
2023-03-17T01:23:02.543Z,81.66
2023-03-17T01:25:29.831Z,81.40
2023-03-17T01:27:59.461Z,81.24
2023-03-17T01:30:33.481Z,81.33
2023-03-17T01:33:00.716Z,80.89
2023-03-17T01:35:29.672Z,81.21
2023-03-17T01:37:57.433Z,80.89
2023-03-17T01:40:32.865Z,80.76
2023-03-17T01:43:04.653Z,80.83
2023-03-17T01:46:09.999Z,80.76
2023-03-17T01:48:40.918Z,80.64
2023-03-17T01:51:13.046Z,80.75
2023-03-17T01:53:40.176Z,80.85
2023-03-17T01:56:08.180Z,80.45
2023-03-17T01:58:35.609Z,80.70
2023-03-17T02:01:02.759Z,80.95
2023-03-17T02:03:30.229Z,81.06
2023-03-17T02:05:59.286Z,81.08
2023-03-17T02:08:26.505Z,81.10
2023-03-17T02:10:54.757Z,80.90
2023-03-17T02:13:22.136Z,80.81
2023-03-17T02:15:53.289Z,80.94
2023-03-17T02:18:22.853Z,80.84
2023-03-17T02:20:49.735Z,80.43
2023-03-17T02:23:22.497Z,81.16
2023-03-17T02:25:51.443Z,80.77
2023-03-17T02:28:31.030Z,81.01
2023-03-17T02:30:58.151Z,80.84
2023-03-17T02:33:25.510Z,81.07
2023-03-17T02:35:55.327Z,81.18
2023-03-17T02:38:22.385Z,80.66
2023-03-17T02:40:51.506Z,80.96
2023-03-17T02:43:19.848Z,80.60
2023-03-17T02:45:46.826Z,80.65
2023-03-17T02:48:14.876Z,80.76
2023-03-17T02:50:42.056Z,80.86
2023-03-17T02:53:09.487Z,80.55
2023-03-17T02:55:36.600Z,80.74
2023-03-17T02:58:03.995Z,80.72
2023-03-17T03:00:31.500Z,80.73
2023-03-17T03:02:58.816Z,80.72
2023-03-17T03:05:26.034Z,80.35
2023-03-17T03:07:53.141Z,80.66
2023-03-17T03:10:20.212Z,80.76
2023-03-17T03:12:47.490Z,80.36
2023-03-17T03:15:14.772Z,80.57
2023-03-17T03:17:42.298Z,80.51
2023-03-17T03:20:11.636Z,80.44
2023-03-17T03:22:39.166Z,80.52
2023-03-17T03:25:07.775Z,80.13
2023-03-17T03:27:35.033Z,80.45
2023-03-17T03:30:02.337Z,80.44
2023-03-17T03:32:29.409Z,80.56
2023-03-17T03:34:57.058Z,80.10
2023-03-17T03:37:24.119Z,80.07
2023-03-17T03:39:51.654Z,80.20
2023-03-17T03:42:18.935Z,80.12
2023-03-17T03:44:45.897Z,80.09
2023-03-17T03:47:12.976Z,79.99
2023-03-17T03:49:40.109Z,79.97
2023-03-17T03:52:07.375Z,79.88
2023-03-17T03:54:34.481Z,79.84
2023-03-17T03:57:01.575Z,79.38
2023-03-17T03:59:29.586Z,79.26
2023-03-17T04:01:56.864Z,79.38
2023-03-17T04:04:24.041Z,79.73
2023-03-17T04:06:51.186Z,79.84
2023-03-17T04:09:18.267Z,79.51
2023-03-17T04:11:45.292Z,79.56
2023-03-17T04:14:12.932Z,79.64
2023-03-17T04:16:42.215Z,79.61
2023-03-17T04:19:11.456Z,79.65
2023-03-17T04:21:38.554Z,79.47
2023-03-17T04:24:06.001Z,79.67
2023-03-17T04:26:33.240Z,79.71
2023-03-17T04:29:00.342Z,79.78
2023-03-17T04:31:27.704Z,79.57
2023-03-17T04:33:54.803Z,79.70
2023-03-17T04:36:24.066Z,79.85
2023-03-17T04:38:51.188Z,79.92
2023-03-17T04:41:18.383Z,80.05
2023-03-17T04:43:46.215Z,80.05
2023-03-17T04:46:13.887Z,80.03
2023-03-17T04:48:41.578Z,80.26
2023-03-17T04:51:11.048Z,80.39
2023-03-17T04:53:38.638Z,80.23
2023-03-17T04:56:06.178Z,79.99
2023-03-17T04:58:33.212Z,79.90
2023-03-17T05:01:00.788Z,79.53
2023-03-17T05:03:28.771Z,80.05
2023-03-17T05:05:59.061Z,79.91
2023-03-17T05:08:28.496Z,79.70
2023-03-17T05:10:56.290Z,79.62
2023-03-17T05:13:23.905Z,79.49
2023-03-17T05:15:52.755Z,79.83
2023-03-17T05:18:22.236Z,79.76
2023-03-17T05:20:49.318Z,79.69
2023-03-17T05:23:16.627Z,79.54
2023-03-17T05:25:44.211Z,79.67
2023-03-17T05:28:11.731Z,79.94
2023-03-17T05:30:38.829Z,80.06
2023-03-17T05:33:06.447Z,80.40
2023-03-17T05:35:33.678Z,80.18
2023-03-17T05:38:00.789Z,80.01
2023-03-17T05:40:27.954Z,80.12
2023-03-17T05:42:55.134Z,79.31
2023-03-17T05:45:22.342Z,79.20
2023-03-17T05:47:49.493Z,78.84
2023-03-17T05:50:16.702Z,79.20
2023-03-17T05:52:43.823Z,79.31
2023-03-17T05:55:11.874Z,79.24
2023-03-17T05:57:38.949Z,79.40
2023-03-17T06:00:06.365Z,79.80
2023-03-17T06:02:33.531Z,79.67
2023-03-17T06:05:00.529Z,79.61
2023-03-17T06:07:31.237Z,79.65
2023-03-17T06:10:05.564Z,79.69
2023-03-17T06:12:33.107Z,79.76
2023-03-17T06:15:00.183Z,79.58
2023-03-17T06:17:27.335Z,80.07
2023-03-17T06:19:54.448Z,80.13
2023-03-17T06:22:21.433Z,79.79
2023-03-17T06:24:48.467Z,79.81
2023-03-17T06:27:15.708Z,79.79
2023-03-17T06:29:42.836Z,79.49
2023-03-17T06:32:20.224Z,79.54
2023-03-17T06:34:48.345Z,79.13
2023-03-17T06:37:16.659Z,79.24
2023-03-17T06:39:44.034Z,78.86
2023-03-17T06:42:11.242Z,78.98
2023-03-17T06:44:38.299Z,79.11
2023-03-17T06:47:05.432Z,78.85
2023-03-17T06:49:32.962Z,78.83
2023-03-17T06:52:00.178Z,78.70
2023-03-17T06:54:27.513Z,78.94
2023-03-17T06:56:54.742Z,78.68
2023-03-17T06:59:22.930Z,78.50
2023-03-17T07:01:50.524Z,78.50
2023-03-17T07:04:17.877Z,78.32
2023-03-17T07:06:45.154Z,77.76
2023-03-17T07:09:12.541Z,77.32
2023-03-17T07:11:39.743Z,77.40
2023-03-17T07:14:06.901Z,77.05
2023-03-17T07:16:34.275Z,77.11
2023-03-17T07:19:02.244Z,77.06
2023-03-17T07:21:29.329Z,77.08
2023-03-17T07:23:56.545Z,76.71
2023-03-17T07:26:23.629Z,76.71
2023-03-17T07:28:51.068Z,76.57
2023-03-17T07:31:18.379Z,76.89
2023-03-17T07:33:45.786Z,76.76
2023-03-17T07:36:13.345Z,76.10
2023-03-17T07:38:40.426Z,76.14
2023-03-17T07:41:10.375Z,75.42
2023-03-17T07:43:38.397Z,74.45
2023-03-17T07:46:06.594Z,74.09
2023-03-17T07:48:34.533Z,73.21
2023-03-17T07:51:01.723Z,72.31
2023-03-17T07:53:28.823Z,71.98
2023-03-17T07:55:56.036Z,71.01
2023-03-17T07:58:23.051Z,70.38
2023-03-17T08:00:50.098Z,69.70
2023-03-17T08:03:17.194Z,70.37
2023-03-17T08:05:44.763Z,70.61
2023-03-17T08:08:12.885Z,70.17
2023-03-17T08:10:39.916Z,69.86
2023-03-17T08:13:07.963Z,69.95
2023-03-17T08:15:35.036Z,69.05
2023-03-17T08:18:02.638Z,68.38
2023-03-17T08:20:30.142Z,67.07
2023-03-17T08:22:57.910Z,67.11
2023-03-17T08:25:25.081Z,66.50
2023-03-17T08:27:52.225Z,65.95
2023-03-17T08:30:20.912Z,65.74
2023-03-17T08:32:48.480Z,65.45
2023-03-17T08:35:17.269Z,65.63
2023-03-17T08:37:46.418Z,65.57
2023-03-17T08:40:17.230Z,65.44
2023-03-17T08:42:44.933Z,64.96
2023-03-17T08:45:13.157Z,64.38
2023-03-17T08:47:40.472Z,64.34
2023-03-17T08:50:12.859Z,64.21
2023-03-17T08:52:39.942Z,62.82
2023-03-17T08:55:09.366Z,62.43
2023-03-17T08:57:36.568Z,63.02
2023-03-17T09:00:11.141Z,62.28
2023-03-17T09:02:43.510Z,62.00
2023-03-17T09:05:14.026Z,61.29
2023-03-17T09:07:42.052Z,61.04
2023-03-17T09:10:11.182Z,60.25
2023-03-17T09:12:38.527Z,60.22
2023-03-17T09:15:07.847Z,60.86
2023-03-17T09:17:35.049Z,59.99
2023-03-17T09:20:02.095Z,59.71
2023-03-17T09:22:29.145Z,59.19
2023-03-17T09:24:56.212Z,58.38
2023-03-17T09:27:23.286Z,58.01
2023-03-17T09:29:50.327Z,57.62
2023-03-17T09:32:18.090Z,56.94
2023-03-17T09:34:45.397Z,56.70
2023-03-17T09:37:12.468Z,56.76
2023-03-17T09:39:39.628Z,56.55
2023-03-17T09:42:36.587Z,55.69
2023-03-17T09:45:18.458Z,55.22
2023-03-17T09:48:24.946Z,55.65
2023-03-17T09:50:54.830Z,56.37
2023-03-17T09:53:36.136Z,55.45
2023-03-17T09:56:08.102Z,55.34
2023-03-17T09:58:37.574Z,54.98
2023-03-17T10:01:07.972Z,55.39
2023-03-17T10:03:34.934Z,55.51
2023-03-17T10:06:24.446Z,54.97
2023-03-17T10:09:34.569Z,56.37
2023-03-17T10:12:23.017Z,56.38
2023-03-17T10:15:02.101Z,56.50
2023-03-17T10:17:35.348Z,57.02
2023-03-17T10:20:26.308Z,56.75
2023-03-17T10:23:01.937Z,56.55
2023-03-17T10:25:31.958Z,57.03
2023-03-17T10:28:23.541Z,56.94
2023-03-17T10:30:50.616Z,55.47
2023-03-17T10:33:18.111Z,54.93
2023-03-17T10:35:45.654Z,54.66
2023-03-17T10:38:18.913Z,55.33
2023-03-17T10:40:58.348Z,55.45
2023-03-17T10:43:30.080Z,55.77
2023-03-17T10:46:02.862Z,55.38
2023-03-17T10:48:35.530Z,56.07
2023-03-17T10:51:08.789Z,54.72
2023-03-17T10:53:44.049Z,54.95
2023-03-17T10:56:31.056Z,54.23
2023-03-17T10:59:34.605Z,54.15
2023-03-17T11:02:17.295Z,53.74
2023-03-17T11:04:44.734Z,53.77
2023-03-17T11:07:19.296Z,52.65
2023-03-17T11:09:51.735Z,50.42
2023-03-17T11:12:28.202Z,49.51
2023-03-17T11:15:01.112Z,49.38
2023-03-17T11:17:39.068Z,47.79
2023-03-17T11:20:06.089Z,46.15
2023-03-17T11:22:42.053Z,46.43
2023-03-17T11:25:11.562Z,46.06
2023-03-17T11:28:19.514Z,45.38
2023-03-17T11:31:32.306Z,45.44
2023-03-17T11:34:07.198Z,46.22
2023-03-17T11:36:46.501Z,46.20
2023-03-17T11:39:23.182Z,45.37
2023-03-17T11:42:02.875Z,44.91
2023-03-17T11:44:42.115Z,45.70
2023-03-17T11:47:28.809Z,44.35
2023-03-17T11:50:08.719Z,45.39
2023-03-17T11:53:14.305Z,45.63
2023-03-17T11:55:57.934Z,44.22
2023-03-17T11:58:32.182Z,44.80
2023-03-17T12:01:01.954Z,44.71
2023-03-17T12:03:54.626Z,44.05
2023-03-17T12:06:39.750Z,43.65
2023-03-17T12:09:38.598Z,44.56
2023-03-17T12:12:07.677Z,43.48
2023-03-17T12:14:44.371Z,44.54
2023-03-17T12:17:30.474Z,44.25
2023-03-17T12:20:19.984Z,42.90
2023-03-17T12:23:07.105Z,42.50
2023-03-17T12:26:09.145Z,42.12
2023-03-17T12:28:44.356Z,43.95
2023-03-17T12:31:26.360Z,43.03
2023-03-17T12:34:05.383Z,43.42
2023-03-17T12:36:34.704Z,44.19
2023-03-17T12:39:09.453Z,44.06
2023-03-17T12:42:01.919Z,44.56
2023-03-17T12:45:03.327Z,42.86
2023-03-17T12:47:43.066Z,42.32
2023-03-17T12:50:31.605Z,43.31
2023-03-17T12:53:19.932Z,41.73
2023-03-17T12:55:51.229Z,42.51
2023-03-17T12:58:39.225Z,42.33
2023-03-17T13:01:41.910Z,42.47
2023-03-17T13:04:22.103Z,41.81
2023-03-17T13:07:19.653Z,41.72
2023-03-17T13:10:10.877Z,42.02
2023-03-17T13:12:40.423Z,43.14
2023-03-17T13:15:25.591Z,42.09
2023-03-17T13:18:10.817Z,42.41
2023-03-17T13:20:43.396Z,40.76
2023-03-17T13:23:10.533Z,40.99
2023-03-17T13:25:41.645Z,41.55
2023-03-17T13:28:14.339Z,41.40
2023-03-17T13:31:05.213Z,41.94
2023-03-17T13:33:33.100Z,41.81
2023-03-17T13:36:13.809Z,41.72
2023-03-17T13:39:15.138Z,41.78
2023-03-17T13:42:20.015Z,42.45
2023-03-17T13:45:25.792Z,42.96
2023-03-17T13:47:53.783Z,42.16
2023-03-17T13:50:32.911Z,41.71
2023-03-17T13:53:10.602Z,42.58
2023-03-17T13:55:42.512Z,43.14
2023-03-17T13:58:11.621Z,43.14
2023-03-17T14:00:42.598Z,42.70
2023-03-17T14:03:21.067Z,42.71
2023-03-17T14:05:51.145Z,42.80
2023-03-17T14:08:55.850Z,42.88
2023-03-17T14:11:40.380Z,43.37
2023-03-17T14:14:32.870Z,43.12
2023-03-17T14:17:18.901Z,42.87
2023-03-17T14:20:27.306Z,43.52
2023-03-17T14:23:00.748Z,43.56
2023-03-17T14:25:34.613Z,43.38
2023-03-17T14:28:09.350Z,43.23
2023-03-17T14:30:39.073Z,43.34
2023-03-17T14:33:12.137Z,43.26
2023-03-17T14:35:43.455Z,43.79
2023-03-17T14:38:20.891Z,43.96
2023-03-17T14:40:48.703Z,44.17
2023-03-17T14:43:16.821Z,44.16
2023-03-17T14:46:13.042Z,43.87
2023-03-17T14:48:43.024Z,43.57
2023-03-17T14:51:30.701Z,43.96
2023-03-17T14:54:01.115Z,44.04
2023-03-17T14:56:38.421Z,44.03
2023-03-17T14:59:16.881Z,42.78
2023-03-17T15:01:48.010Z,43.01
2023-03-17T15:04:22.020Z,42.65
2023-03-17T15:06:59.445Z,43.09
2023-03-17T15:09:36.439Z,42.65
2023-03-17T15:12:13.226Z,43.28
2023-03-17T15:14:41.517Z,43.26
2023-03-17T15:17:17.245Z,42.98
2023-03-17T15:19:58.279Z,42.65
2023-03-17T15:22:28.357Z,42.28
2023-03-17T15:25:17.831Z,42.33
2023-03-17T15:27:45.482Z,42.38
2023-03-17T15:30:13.378Z,42.69
2023-03-17T15:32:40.759Z,42.42
2023-03-17T15:35:12.061Z,43.18
2023-03-17T15:37:39.229Z,43.49
2023-03-17T15:40:07.210Z,43.35
2023-03-17T15:42:36.627Z,43.26
2023-03-17T15:45:04.965Z,43.23
2023-03-17T15:47:36.851Z,43.65
2023-03-17T15:50:26.065Z,43.58
2023-03-17T15:52:56.433Z,43.15
2023-03-17T15:55:30.881Z,43.82
2023-03-17T15:57:58.838Z,44.08
2023-03-17T16:00:30.066Z,43.70
2023-03-17T16:03:01.611Z,44.59
2023-03-17T16:05:32.005Z,44.86
2023-03-17T16:07:58.955Z,44.41
2023-03-17T16:10:29.358Z,44.81
2023-03-17T16:12:56.733Z,44.34
2023-03-17T16:15:31.594Z,44.58
2023-03-17T16:18:01.873Z,45.03
2023-03-17T16:20:32.949Z,44.71
2023-03-17T16:23:07.680Z,45.61
2023-03-17T16:25:34.881Z,45.99
2023-03-17T16:28:07.834Z,45.47
2023-03-17T16:30:34.947Z,45.90
2023-03-17T16:33:12.585Z,46.12
2023-03-17T16:35:39.785Z,46.92
2023-03-17T16:38:10.596Z,47.38
2023-03-17T16:40:38.858Z,47.29
2023-03-17T16:43:24.302Z,47.80
2023-03-17T16:45:53.916Z,48.12
2023-03-17T16:48:21.172Z,48.42
2023-03-17T16:50:48.655Z,49.31
2023-03-17T16:53:15.672Z,48.92
2023-03-17T16:55:44.018Z,49.32
2023-03-17T16:58:21.700Z,50.53
2023-03-17T17:00:51.147Z,50.37
2023-03-17T17:03:18.345Z,50.26
2023-03-17T17:05:46.472Z,49.96
2023-03-17T17:08:13.571Z,49.58
2023-03-17T17:10:41.032Z,49.61
2023-03-17T17:13:09.316Z,49.65
2023-03-17T17:15:37.939Z,49.59
2023-03-17T17:18:14.624Z,49.52
2023-03-17T17:20:42.677Z,49.29
2023-03-17T17:23:18.744Z,49.43
2023-03-17T17:25:46.284Z,49.59
2023-03-17T17:28:16.799Z,49.91
2023-03-17T17:30:46.421Z,49.76
2023-03-17T17:33:14.757Z,50.22
2023-03-17T17:35:43.663Z,50.29
2023-03-17T17:38:22.331Z,50.08
2023-03-17T17:40:50.184Z,50.72
2023-03-17T17:43:18.465Z,51.33
2023-03-17T17:45:48.830Z,51.05
2023-03-17T17:48:17.126Z,51.66
2023-03-17T17:50:44.603Z,52.01
2023-03-17T17:53:12.709Z,53.05
2023-03-17T17:55:44.320Z,53.50
2023-03-17T17:58:23.738Z,53.79
2023-03-17T18:00:52.838Z,53.84
2023-03-17T18:03:24.771Z,54.25
2023-03-17T18:05:53.963Z,54.71
2023-03-17T18:08:21.625Z,54.75
2023-03-17T18:10:51.505Z,54.63
2023-03-17T18:13:19.236Z,54.60
2023-03-17T18:15:46.703Z,54.83
2023-03-17T18:18:13.933Z,55.08
2023-03-17T18:20:41.214Z,55.11
2023-03-17T18:23:08.656Z,54.75
2023-03-17T18:25:37.394Z,54.70
2023-03-17T18:28:05.186Z,55.25
2023-03-17T18:30:35.241Z,54.85
2023-03-17T18:33:10.993Z,55.16
2023-03-17T18:35:38.484Z,55.28
2023-03-17T18:38:05.874Z,54.92
2023-03-17T18:40:33.436Z,55.24
2023-03-17T18:43:00.980Z,54.99
2023-03-17T18:45:28.100Z,55.31
2023-03-17T18:47:55.365Z,55.07
2023-03-17T18:50:22.642Z,55.04
2023-03-17T18:52:50.404Z,55.36
2023-03-17T18:55:18.194Z,54.98
2023-03-17T18:57:46.702Z,55.08
2023-03-17T19:00:16.688Z,55.18
2023-03-17T19:02:44.106Z,55.09
2023-03-17T19:05:13.090Z,55.50
2023-03-17T19:07:41.242Z,55.64
2023-03-17T19:10:10.897Z,55.90
2023-03-17T19:12:38.477Z,56.06
2023-03-17T19:15:07.629Z,56.07
2023-03-17T19:17:35.779Z,56.36
2023-03-17T19:20:03.270Z,56.26
2023-03-17T19:22:30.308Z,56.57
2023-03-17T19:24:57.366Z,56.40
2023-03-17T19:27:24.665Z,56.51
2023-03-17T19:29:51.785Z,56.41
2023-03-17T19:32:19.012Z,56.50
2023-03-17T19:34:48.018Z,56.72
2023-03-17T19:37:15.381Z,56.53
2023-03-17T19:39:45.139Z,56.30
2023-03-17T19:42:12.950Z,56.51
2023-03-17T19:44:40.892Z,56.55
2023-03-17T19:47:08.714Z,56.57
2023-03-17T19:49:37.753Z,56.64
2023-03-17T19:52:06.878Z,56.25
2023-03-17T19:54:34.551Z,56.42
2023-03-17T19:57:01.889Z,56.61
2023-03-17T19:59:28.903Z,56.58
2023-03-17T20:01:56.287Z,56.62
2023-03-17T20:04:23.705Z,56.66
2023-03-17T20:06:55.928Z,56.94
2023-03-17T20:09:25.667Z,56.79
2023-03-17T20:11:56.877Z,56.97
2023-03-17T20:14:24.433Z,57.29
2023-03-17T20:16:52.197Z,56.99
2023-03-17T20:19:19.250Z,57.02
2023-03-17T20:21:46.348Z,57.08
2023-03-17T20:24:14.940Z,56.82
2023-03-17T20:26:43.583Z,56.81
2023-03-17T20:29:14.571Z,56.83
2023-03-17T20:31:43.005Z,56.80
2023-03-17T20:34:10.896Z,56.50
2023-03-17T20:36:42.504Z,56.68
2023-03-17T20:39:13.939Z,56.56
2023-03-17T20:41:41.548Z,56.22
2023-03-17T20:44:08.645Z,56.67
2023-03-17T20:46:35.811Z,56.89
2023-03-17T20:49:04.268Z,56.85
2023-03-17T20:51:32.547Z,56.89
2023-03-17T20:54:02.148Z,56.91
2023-03-17T20:56:30.056Z,56.79
2023-03-17T20:58:58.727Z,57.07
2023-03-17T21:01:26.951Z,57.28
2023-03-17T21:03:54.287Z,56.91
2023-03-17T21:06:23.566Z,57.25
2023-03-17T21:08:51.694Z,56.92
2023-03-17T21:11:20.949Z,57.00
2023-03-17T21:13:48.121Z,57.29
2023-03-17T21:16:21.713Z,57.33
2023-03-17T21:18:49.044Z,57.79
2023-03-17T21:21:17.470Z,57.58
2023-03-17T21:23:45.061Z,57.33
2023-03-17T21:26:13.906Z,57.82
2023-03-17T21:28:41.829Z,57.43
2023-03-17T21:31:09.761Z,58.08
2023-03-17T21:33:37.357Z,57.81
2023-03-17T21:36:05.263Z,57.47
2023-03-17T21:38:32.373Z,57.70
2023-03-17T21:41:17.895Z,58.18
2023-03-17T21:43:46.772Z,57.76
2023-03-17T21:46:14.604Z,58.01
2023-03-17T21:48:41.861Z,57.73
2023-03-17T21:51:08.903Z,58.09
2023-03-17T21:53:35.967Z,58.39
2023-03-17T21:56:04.157Z,58.30
2023-03-17T21:58:31.226Z,57.84
2023-03-17T22:01:00.894Z,58.12
2023-03-17T22:03:28.041Z,57.93
2023-03-17T22:05:55.226Z,58.11
2023-03-17T22:08:22.796Z,58.41
2023-03-17T22:10:49.991Z,58.25
2023-03-17T22:13:17.501Z,58.31
2023-03-17T22:15:45.015Z,58.81
2023-03-17T22:18:12.144Z,58.19
2023-03-17T22:20:39.315Z,58.24
2023-03-17T22:23:06.463Z,57.97
2023-03-17T22:25:33.661Z,58.45
2023-03-17T22:28:00.754Z,58.01
2023-03-17T22:30:28.131Z,58.07
2023-03-17T22:32:55.346Z,58.40
2023-03-17T22:35:23.692Z,58.13
2023-03-17T22:37:51.137Z,58.12
2023-03-17T22:40:19.362Z,58.06
2023-03-17T22:42:47.069Z,58.35
2023-03-17T22:45:15.306Z,58.15
2023-03-17T22:47:42.745Z,57.91
2023-03-17T22:50:10.900Z,58.50
2023-03-17T22:52:39.018Z,58.25
2023-03-17T22:55:07.884Z,58.52
2023-03-17T22:57:36.146Z,58.24
2023-03-17T23:00:09.546Z,58.25
2023-03-17T23:02:36.668Z,58.51
2023-03-17T23:05:04.035Z,58.48
2023-03-17T23:07:38.098Z,58.57
2023-03-17T23:10:14.999Z,58.83
2023-03-17T23:12:44.111Z,58.71
2023-03-17T23:15:11.709Z,58.59
2023-03-17T23:17:38.989Z,58.84
2023-03-17T23:20:07.109Z,58.88
2023-03-17T23:22:34.469Z,58.83
2023-03-17T23:25:02.030Z,59.25
2023-03-17T23:27:29.078Z,58.45
2023-03-17T23:29:57.298Z,59.02
2023-03-17T23:32:24.690Z,59.03
2023-03-17T23:34:51.756Z,58.72
2023-03-17T23:37:18.910Z,58.48
2023-03-17T23:39:45.983Z,58.67
2023-03-17T23:42:13.044Z,58.79
2023-03-17T23:44:41.296Z,58.90
2023-03-17T23:47:09.872Z,59.09
2023-03-17T23:49:37.036Z,59.07
2023-03-17T23:52:04.958Z,58.86
2023-03-17T23:54:32.380Z,59.23
2023-03-17T23:57:00.153Z,59.83
2023-03-17T23:59:27.434Z,59.53
